createdAt,value
2024-02-14T00:01:32.635Z,5.80
2024-02-14T00:04:01.070Z,5.70
2024-02-14T00:06:29.530Z,5.70
2024-02-14T00:08:58.121Z,5.70
2024-02-14T00:11:27.979Z,5.70
2024-02-14T00:13:57.783Z,5.70
2024-02-14T00:16:26.318Z,5.70
2024-02-14T00:18:54.940Z,5.70
2024-02-14T00:21:23.393Z,5.70
2024-02-14T00:23:51.849Z,5.70
2024-02-14T00:26:20.320Z,5.60
2024-02-14T00:28:50.140Z,5.60
2024-02-14T00:31:18.624Z,5.60
2024-02-14T00:33:47.873Z,5.60
2024-02-14T00:36:19.049Z,5.60
2024-02-14T00:38:49.773Z,5.60
2024-02-14T00:41:18.211Z,5.50
2024-02-14T00:43:46.548Z,5.50
2024-02-14T00:46:21.923Z,5.60
2024-02-14T00:48:50.588Z,5.60
2024-02-14T00:51:19.390Z,5.60
2024-02-14T00:53:47.757Z,5.60
2024-02-14T00:56:19.050Z,5.60
2024-02-14T00:58:50.547Z,5.50
2024-02-14T01:01:19.043Z,5.50
2024-02-14T01:03:48.812Z,5.60
2024-02-14T01:06:17.581Z,5.50
2024-02-14T01:08:46.087Z,5.50
2024-02-14T01:11:14.607Z,5.50
2024-02-14T01:13:43.180Z,5.50
2024-02-14T01:16:13.856Z,5.50
2024-02-14T01:18:42.400Z,5.50
2024-02-14T01:21:12.474Z,5.50
2024-02-14T01:23:40.876Z,5.50
2024-02-14T01:26:09.259Z,5.50
2024-02-14T01:28:40.299Z,5.50
2024-02-14T01:31:08.700Z,5.50
2024-02-14T01:33:37.214Z,5.50
2024-02-14T01:36:06.434Z,5.40
2024-02-14T01:38:36.827Z,5.40
2024-02-14T01:41:05.694Z,5.40
2024-02-14T01:43:34.136Z,5.40
2024-02-14T01:46:07.177Z,5.40
2024-02-14T01:48:36.544Z,5.40
2024-02-14T01:51:08.533Z,5.40
2024-02-14T01:53:39.338Z,5.30
2024-02-14T01:56:08.344Z,5.30
2024-02-14T01:58:38.843Z,5.30
2024-02-14T02:01:11.161Z,5.30
2024-02-14T02:03:39.644Z,5.30
2024-02-14T02:06:08.661Z,5.30
2024-02-14T02:08:38.562Z,5.30
2024-02-14T02:11:10.033Z,5.30
2024-02-14T02:13:40.550Z,5.30
2024-02-14T02:16:09.259Z,5.30
2024-02-14T02:18:38.715Z,5.20
2024-02-14T02:21:09.148Z,5.20
2024-02-14T02:23:41.881Z,5.20
2024-02-14T02:26:10.234Z,5.20
2024-02-14T02:28:38.663Z,5.20
2024-02-14T02:31:10.294Z,5.10
2024-02-14T02:33:38.867Z,5.10
2024-02-14T02:36:11.133Z,5.10
2024-02-14T02:38:44.576Z,5.10
2024-02-14T02:41:12.995Z,5.00
2024-02-14T02:43:41.312Z,5.10
2024-02-14T02:46:11.449Z,5.00
2024-02-14T02:48:39.894Z,5.00
2024-02-14T02:51:08.340Z,5.00
2024-02-14T02:53:37.994Z,5.00
2024-02-14T02:56:09.623Z,5.00
2024-02-14T02:58:40.997Z,5.00
2024-02-14T03:01:10.455Z,5.00
2024-02-14T03:03:42.331Z,5.00
2024-02-14T03:06:10.903Z,5.00
2024-02-14T03:08:39.752Z,5.00
2024-02-14T03:11:10.246Z,4.90
2024-02-14T03:13:42.008Z,4.90
2024-02-14T03:16:12.311Z,4.90
2024-02-14T03:18:40.771Z,4.90
2024-02-14T03:21:09.286Z,4.90
2024-02-14T03:23:37.734Z,4.90
2024-02-14T03:26:08.578Z,4.90
2024-02-14T03:28:38.367Z,4.80
2024-02-14T03:31:08.800Z,4.90
2024-02-14T03:33:37.336Z,4.80
2024-02-14T03:36:06.481Z,4.80
2024-02-14T03:38:34.868Z,4.80
2024-02-14T03:41:03.289Z,4.80
2024-02-14T03:43:33.487Z,4.80
2024-02-14T03:46:03.387Z,4.80
2024-02-14T03:48:32.281Z,4.80
2024-02-14T03:51:00.770Z,4.70
2024-02-14T03:53:29.194Z,4.80
2024-02-14T03:55:57.589Z,4.70
2024-02-14T03:58:25.955Z,4.70
2024-02-14T04:00:54.569Z,4.60
2024-02-14T04:03:26.684Z,4.60
2024-02-14T04:05:55.184Z,4.60
2024-02-14T04:08:23.596Z,4.60
2024-02-14T04:10:52.127Z,4.60
2024-02-14T04:13:23.019Z,4.60
2024-02-14T04:15:51.331Z,4.60
2024-02-14T04:18:19.923Z,4.60
2024-02-14T04:20:49.992Z,4.60
2024-02-14T04:23:20.812Z,4.60
2024-02-14T04:25:49.419Z,4.60
2024-02-14T04:28:17.829Z,4.60
2024-02-14T04:30:46.662Z,4.50
2024-02-14T04:33:17.327Z,4.60
2024-02-14T04:35:49.589Z,4.50
2024-02-14T04:38:19.707Z,4.50
2024-02-14T04:40:49.277Z,4.50
2024-02-14T04:43:17.924Z,4.50
2024-02-14T04:45:46.336Z,4.50
2024-02-14T04:48:14.990Z,4.50
2024-02-14T04:50:43.540Z,4.40
2024-02-14T04:53:13.362Z,4.50
2024-02-14T04:55:41.675Z,4.50
2024-02-14T04:58:10.067Z,4.40
2024-02-14T05:00:40.896Z,4.40
2024-02-14T05:03:11.371Z,4.50
2024-02-14T05:05:40.259Z,4.40
2024-02-14T05:08:08.980Z,4.50
2024-02-14T05:10:38.799Z,4.40
2024-02-14T05:13:07.136Z,4.50
2024-02-14T05:15:36.293Z,4.50
2024-02-14T05:18:07.676Z,4.40
2024-02-14T05:20:36.732Z,4.40
2024-02-14T05:23:07.618Z,4.40
2024-02-14T05:25:35.984Z,4.40
2024-02-14T05:28:06.178Z,4.40
2024-02-14T05:30:35.423Z,4.40
2024-02-14T05:33:03.944Z,4.40
2024-02-14T05:35:32.430Z,4.40
2024-02-14T05:38:09.601Z,4.40
2024-02-14T05:40:40.623Z,4.40
2024-02-14T05:43:10.398Z,4.40
2024-02-14T05:45:41.379Z,4.40
2024-02-14T05:48:09.969Z,4.40
2024-02-14T05:50:38.618Z,4.40
2024-02-14T05:53:09.275Z,4.40
2024-02-14T05:55:38.227Z,4.40
2024-02-14T05:58:10.359Z,4.40
2024-02-14T06:00:38.798Z,4.40
2024-02-14T06:03:08.540Z,4.40
2024-02-14T06:05:37.130Z,4.30
2024-02-14T06:08:06.141Z,4.40
2024-02-14T06:10:40.014Z,4.40
2024-02-14T06:13:08.523Z,4.30
2024-02-14T06:15:38.264Z,4.40
2024-02-14T06:18:07.626Z,4.40
2024-02-14T06:20:36.127Z,4.40
2024-02-14T06:23:05.899Z,4.30
2024-02-14T06:25:35.108Z,4.40
2024-02-14T06:28:04.891Z,4.40
2024-02-14T06:30:35.686Z,4.40
2024-02-14T06:33:08.237Z,4.40
2024-02-14T06:35:36.890Z,4.30
2024-02-14T06:38:06.800Z,4.40
2024-02-14T06:40:35.311Z,4.40
2024-02-14T06:43:07.732Z,4.40
2024-02-14T06:45:36.200Z,4.40
2024-02-14T06:48:04.920Z,4.30
2024-02-14T06:50:37.091Z,4.30
2024-02-14T06:53:06.162Z,4.40
2024-02-14T06:55:34.554Z,4.40
2024-02-14T06:58:06.220Z,4.40
2024-02-14T07:00:35.211Z,4.40
2024-02-14T07:03:03.958Z,4.40
2024-02-14T07:05:36.740Z,4.40
2024-02-14T07:08:05.831Z,4.40
2024-02-14T07:10:34.431Z,4.40
2024-02-14T07:13:06.180Z,4.40
2024-02-14T07:15:34.978Z,4.40
2024-02-14T07:18:04.628Z,4.40
2024-02-14T07:20:32.995Z,4.50
2024-02-14T07:23:06.501Z,4.50
2024-02-14T07:25:34.930Z,4.50
2024-02-14T07:28:03.385Z,4.50
2024-02-14T07:30:34.354Z,4.50
2024-02-14T07:33:03.114Z,4.50
2024-02-14T07:35:33.522Z,4.50
2024-02-14T07:38:02.020Z,4.50
2024-02-14T07:40:34.755Z,4.50
2024-02-14T07:43:03.585Z,4.50
2024-02-14T07:45:35.042Z,4.60
2024-02-14T07:48:04.516Z,4.60
2024-02-14T07:50:33.734Z,4.60
2024-02-14T07:53:02.271Z,4.60
2024-02-14T07:55:30.691Z,4.60
2024-02-14T07:58:01.530Z,4.60
2024-02-14T08:00:33.077Z,4.60
2024-02-14T08:03:05.023Z,4.70
2024-02-14T08:05:33.641Z,4.70
2024-02-14T08:08:02.244Z,4.70
2024-02-14T08:10:31.951Z,4.70
2024-02-14T08:13:05.462Z,4.70
2024-02-14T08:15:37.560Z,4.70
2024-02-14T08:18:10.208Z,4.70
2024-02-14T08:20:39.257Z,4.80
2024-02-14T08:23:07.808Z,4.80
2024-02-14T08:25:36.384Z,4.80
2024-02-14T08:28:10.750Z,4.80
2024-02-14T08:30:39.979Z,4.80
2024-02-14T08:33:08.694Z,4.80
2024-02-14T08:35:42.944Z,4.90
2024-02-14T08:38:22.601Z,4.90
2024-02-14T08:40:53.597Z,4.90
2024-02-14T08:43:26.817Z,4.90
2024-02-14T08:45:55.238Z,4.90
2024-02-14T08:48:23.883Z,4.90
2024-02-14T08:50:54.417Z,5.00
2024-02-14T08:53:23.580Z,4.90
2024-02-14T08:55:52.953Z,5.00
2024-02-14T08:58:25.672Z,5.00
2024-02-14T09:01:04.662Z,5.00
2024-02-14T09:03:37.833Z,5.00
2024-02-14T09:06:06.787Z,5.00
2024-02-14T09:08:35.425Z,5.10
2024-02-14T09:11:03.990Z,5.10
2024-02-14T09:13:33.764Z,5.00
2024-02-14T09:16:02.153Z,5.10
2024-02-14T09:18:32.866Z,5.10
2024-02-14T09:21:02.721Z,5.20
2024-02-14T09:23:33.481Z,5.20
2024-02-14T09:26:02.594Z,5.20
2024-02-14T09:28:31.459Z,5.20
2024-02-14T09:31:05.545Z,5.20
2024-02-14T09:33:34.167Z,5.20
2024-02-14T09:36:02.713Z,5.20
2024-02-14T09:38:31.602Z,5.30
2024-02-14T09:41:07.493Z,5.30
2024-02-14T09:43:40.206Z,5.30
2024-02-14T09:46:09.995Z,5.30
2024-02-14T09:48:39.479Z,5.30
2024-02-14T09:51:10.550Z,5.30
2024-02-14T09:53:39.238Z,5.30
2024-02-14T09:56:08.215Z,5.30
2024-02-14T09:58:37.701Z,5.30
2024-02-14T10:01:07.884Z,5.30
2024-02-14T10:03:37.843Z,5.30
2024-02-14T10:06:06.764Z,5.40
2024-02-14T10:08:37.243Z,5.40
2024-02-14T10:11:07.813Z,5.40
2024-02-14T10:13:36.599Z,5.40
2024-02-14T10:16:05.397Z,5.40
2024-02-14T10:18:34.572Z,5.40
2024-02-14T10:21:05.496Z,5.50
2024-02-14T10:23:35.512Z,5.50
2024-02-14T10:26:06.953Z,5.50
2024-02-14T10:28:40.831Z,5.60
2024-02-14T10:31:12.767Z,5.60
2024-02-14T10:33:43.919Z,5.60
2024-02-14T10:36:15.030Z,5.70
2024-02-14T10:38:43.672Z,5.70
2024-02-14T10:41:15.481Z,5.70
2024-02-14T10:43:46.779Z,5.80
2024-02-14T10:46:21.166Z,5.80
2024-02-14T10:48:51.042Z,5.90
2024-02-14T10:51:22.231Z,6.00
2024-02-14T10:53:51.864Z,6.40
2024-02-14T10:56:21.125Z,6.40
2024-02-14T10:58:50.409Z,6.40
2024-02-14T11:01:19.152Z,6.60
2024-02-14T11:03:47.778Z,6.50
2024-02-14T11:06:18.261Z,6.30
2024-02-14T11:08:59.704Z,6.20
2024-02-14T11:11:31.822Z,6.20
2024-02-14T11:14:00.542Z,6.20
2024-02-14T11:16:30.177Z,6.20
2024-02-14T11:19:11.602Z,6.10
2024-02-14T11:21:44.277Z,6.10
2024-02-14T11:24:16.288Z,6.20
2024-02-14T11:26:54.417Z,6.20
2024-02-14T11:29:25.356Z,6.20
2024-02-14T11:32:01.244Z,6.20
2024-02-14T11:34:30.212Z,6.20
2024-02-14T11:36:58.625Z,6.30
2024-02-14T11:39:28.636Z,6.30
2024-02-14T11:42:02.157Z,6.30
2024-02-14T11:44:38.969Z,6.30
2024-02-14T11:47:07.640Z,6.30
2024-02-14T11:49:37.573Z,6.30
2024-02-14T11:52:06.392Z,6.40
2024-02-14T11:54:38.984Z,6.40
2024-02-14T11:57:11.137Z,6.40
2024-02-14T11:59:43.710Z,6.40
2024-02-14T12:02:12.284Z,6.50
2024-02-14T12:04:42.960Z,6.50
2024-02-14T12:07:11.681Z,6.50
2024-02-14T12:09:41.441Z,6.60
2024-02-14T12:12:10.480Z,6.70
2024-02-14T12:14:39.067Z,6.80
2024-02-14T12:17:08.421Z,6.80
2024-02-14T12:19:39.200Z,6.80
2024-02-14T12:22:12.982Z,6.80
2024-02-14T12:24:42.778Z,6.80
2024-02-14T12:27:11.314Z,6.80
2024-02-14T12:29:39.846Z,6.90
2024-02-14T12:32:08.574Z,6.90
2024-02-14T12:34:40.100Z,6.90
2024-02-14T12:37:12.246Z,6.90
2024-02-14T12:39:44.559Z,7.00
2024-02-14T12:42:13.193Z,7.00
2024-02-14T12:44:42.067Z,7.00
2024-02-14T12:47:12.766Z,7.00
2024-02-14T12:49:41.341Z,7.00
2024-02-14T12:52:10.060Z,7.00
2024-02-14T12:54:38.424Z,7.00
2024-02-14T12:57:08.418Z,7.10
2024-02-14T12:59:36.860Z,7.10
2024-02-14T13:02:07.758Z,7.10
2024-02-14T13:04:40.125Z,7.20
2024-02-14T13:07:10.418Z,7.20
2024-02-14T13:09:41.251Z,7.20
2024-02-14T13:12:11.185Z,7.30
2024-02-14T13:14:42.603Z,7.30
2024-02-14T13:17:12.170Z,7.30
2024-02-14T13:19:41.408Z,7.40
2024-02-14T13:22:13.232Z,7.40
2024-02-14T13:24:44.554Z,7.60
2024-02-14T13:27:15.363Z,7.70
2024-02-14T13:29:43.825Z,7.80
2024-02-14T13:32:12.483Z,7.90
2024-02-14T13:34:40.987Z,7.90
2024-02-14T13:37:16.358Z,8.00
2024-02-14T13:39:45.387Z,8.10
2024-02-14T13:42:15.397Z,8.10
2024-02-14T13:44:44.106Z,8.10
2024-02-14T13:47:12.570Z,8.30
2024-02-14T13:49:41.082Z,8.20
2024-02-14T13:52:09.590Z,8.30
2024-02-14T13:54:38.165Z,8.30
2024-02-14T13:57:06.873Z,8.40
2024-02-14T13:59:36.749Z,8.40
2024-02-14T14:02:05.373Z,8.40
2024-02-14T14:04:36.161Z,8.40
2024-02-14T14:07:06.010Z,8.50
2024-02-14T14:09:34.685Z,8.50
2024-02-14T14:12:03.068Z,8.50
2024-02-14T14:14:31.548Z,8.60
2024-02-14T14:17:01.324Z,8.60
2024-02-14T14:19:32.333Z,8.60
2024-02-14T14:22:00.758Z,8.60
2024-02-14T14:24:32.242Z,8.60
2024-02-14T14:27:00.783Z,8.60
2024-02-14T14:29:29.197Z,8.70
2024-02-14T14:31:58.273Z,8.70
2024-02-14T14:34:28.237Z,8.70
2024-02-14T14:36:56.805Z,8.80
2024-02-14T14:39:25.131Z,8.80
2024-02-14T14:41:54.641Z,8.70
2024-02-14T14:44:23.052Z,8.80
2024-02-14T14:46:51.942Z,8.80
2024-02-14T14:49:20.426Z,8.80
2024-02-14T14:51:50.283Z,8.80
2024-02-14T14:54:22.169Z,8.80
2024-02-14T14:56:55.686Z,8.90
2024-02-14T14:59:26.357Z,8.90
2024-02-14T15:01:55.388Z,8.90
2024-02-14T15:04:23.934Z,8.90
2024-02-14T15:06:55.497Z,8.90
2024-02-14T15:09:23.987Z,9.00
2024-02-14T15:11:52.359Z,8.90
2024-02-14T15:14:20.823Z,9.00
2024-02-14T15:16:49.192Z,9.00
2024-02-14T15:19:17.706Z,9.00
2024-02-14T15:21:48.653Z,8.90
2024-02-14T15:24:18.741Z,9.00
2024-02-14T15:26:51.681Z,9.00
2024-02-14T15:29:37.510Z,9.00
2024-02-14T15:32:24.173Z,9.00
2024-02-14T15:34:53.151Z,8.90
2024-02-14T15:37:21.756Z,9.00
2024-02-14T15:39:53.182Z,9.00
2024-02-14T15:42:21.569Z,9.00
2024-02-14T15:44:52.277Z,9.00
2024-02-14T15:47:21.031Z,9.10
2024-02-14T15:49:49.393Z,9.20
2024-02-14T15:52:21.678Z,9.20
2024-02-14T15:54:53.524Z,9.20
2024-02-14T15:57:22.036Z,9.20
2024-02-14T15:59:50.495Z,9.20
2024-02-14T16:02:18.911Z,9.20
2024-02-14T16:04:47.281Z,9.20
2024-02-14T16:07:18.287Z,9.20
2024-02-14T16:09:46.634Z,9.30
2024-02-14T16:12:18.691Z,9.30
2024-02-14T16:14:47.120Z,9.40
2024-02-14T16:17:17.599Z,9.40
2024-02-14T16:19:46.015Z,9.50
2024-02-14T16:22:16.991Z,9.50
2024-02-14T16:24:47.549Z,9.50
2024-02-14T16:27:17.412Z,9.50
2024-02-14T16:29:47.832Z,9.60
2024-02-14T16:32:16.279Z,9.60
2024-02-14T16:34:49.600Z,9.60
2024-02-14T16:37:20.846Z,9.60
2024-02-14T16:39:50.997Z,9.70
2024-02-14T16:42:20.098Z,9.70
2024-02-14T16:44:50.269Z,9.70
2024-02-14T16:47:18.727Z,9.70
2024-02-14T16:49:47.250Z,9.70
2024-02-14T16:52:17.834Z,9.80
2024-02-14T16:54:48.354Z,9.80
2024-02-14T16:57:18.734Z,9.80
2024-02-14T16:59:50.648Z,9.80
2024-02-14T17:02:19.100Z,9.80
2024-02-14T17:04:47.720Z,9.80
2024-02-14T17:07:16.826Z,9.80
2024-02-14T17:09:46.385Z,9.90
2024-02-14T17:12:15.337Z,9.90
2024-02-14T17:14:45.559Z,9.90
2024-02-14T17:17:15.712Z,9.90
2024-02-14T17:19:44.196Z,9.90
2024-02-14T17:22:20.634Z,9.90
2024-02-14T17:24:56.820Z,9.90
2024-02-14T17:27:25.797Z,9.90
2024-02-14T17:29:54.248Z,9.90
2024-02-14T17:32:32.522Z,9.90
2024-02-14T17:35:09.916Z,10.00
2024-02-14T17:37:39.582Z,10.00
2024-02-14T17:40:09.784Z,10.00
2024-02-14T17:42:38.378Z,10.00
2024-02-14T17:45:08.408Z,10.00
2024-02-14T17:47:39.087Z,10.00
2024-02-14T17:50:08.900Z,10.00
2024-02-14T17:52:38.700Z,10.00
2024-02-14T17:55:07.854Z,10.00
2024-02-14T17:57:38.580Z,10.00
2024-02-14T18:00:10.526Z,10.00
2024-02-14T18:02:43.687Z,10.00
2024-02-14T18:05:12.684Z,10.00
2024-02-14T18:07:41.259Z,10.10
2024-02-14T18:10:11.910Z,10.10
2024-02-14T18:12:40.256Z,10.10
2024-02-14T18:15:10.505Z,10.00
2024-02-14T18:17:39.048Z,10.00
2024-02-14T18:20:10.232Z,10.00
2024-02-14T18:22:38.782Z,10.00
2024-02-14T18:25:12.958Z,10.00
2024-02-14T18:27:41.595Z,10.00
2024-02-14T18:30:11.200Z,10.10
2024-02-14T18:32:40.347Z,10.00
2024-02-14T18:35:10.643Z,10.10
2024-02-14T18:37:39.314Z,10.00
2024-02-14T18:40:09.387Z,10.00
2024-02-14T18:42:38.049Z,10.00
2024-02-14T18:45:10.500Z,10.10
2024-02-14T18:47:39.251Z,10.10
2024-02-14T18:50:08.309Z,10.10
2024-02-14T18:52:39.731Z,10.10
2024-02-14T18:55:12.127Z,10.10
2024-02-14T18:57:42.729Z,10.10
2024-02-14T19:00:13.029Z,10.10
2024-02-14T19:02:43.768Z,10.20
2024-02-14T19:05:12.382Z,10.10
2024-02-14T19:07:42.326Z,10.10
2024-02-14T19:10:13.400Z,10.10
2024-02-14T19:12:42.013Z,10.20
2024-02-14T19:15:11.524Z,10.20
2024-02-14T19:17:41.627Z,10.20
2024-02-14T19:20:10.903Z,10.20
2024-02-14T19:22:39.467Z,10.20
2024-02-14T19:25:09.914Z,10.20
2024-02-14T19:27:41.334Z,10.20
2024-02-14T19:30:10.181Z,10.20
2024-02-14T19:32:41.939Z,10.20
2024-02-14T19:35:10.913Z,10.20
2024-02-14T19:37:39.475Z,10.20
2024-02-14T19:40:12.374Z,10.10
2024-02-14T19:42:43.480Z,10.20
2024-02-14T19:45:12.226Z,10.20
2024-02-14T19:47:40.732Z,10.20
2024-02-14T19:50:14.223Z,10.20
2024-02-14T19:52:45.092Z,10.20
2024-02-14T19:55:15.770Z,10.20
2024-02-14T19:57:44.252Z,10.20
2024-02-14T20:00:13.384Z,10.20
2024-02-14T20:02:42.885Z,10.20
2024-02-14T20:05:13.160Z,10.20
2024-02-14T20:07:44.096Z,10.20
2024-02-14T20:10:14.067Z,10.20
2024-02-14T20:12:42.442Z,10.20
2024-02-14T20:15:12.664Z,10.20
2024-02-14T20:17:41.502Z,10.20
2024-02-14T20:20:10.671Z,10.20
2024-02-14T20:22:39.085Z,10.20
2024-02-14T20:25:12.788Z,10.20
2024-02-14T20:27:42.601Z,10.20
2024-02-14T20:30:13.772Z,10.20
2024-02-14T20:32:43.005Z,10.40
2024-02-14T20:35:14.217Z,10.30
2024-02-14T20:37:44.392Z,10.30
2024-02-14T20:40:14.610Z,10.30
2024-02-14T20:42:47.089Z,10.30
2024-02-14T20:45:15.652Z,10.30
2024-02-14T20:47:44.972Z,10.30
2024-02-14T20:50:15.378Z,10.30
2024-02-14T20:52:43.781Z,10.30
2024-02-14T20:55:12.148Z,10.30
2024-02-14T20:57:40.839Z,10.30
2024-02-14T21:00:11.974Z,10.50
2024-02-14T21:02:40.691Z,10.60
2024-02-14T21:05:09.925Z,10.50
2024-02-14T21:07:39.120Z,10.50
2024-02-14T21:10:08.484Z,10.50
2024-02-14T21:12:36.891Z,10.40
2024-02-14T21:15:05.795Z,10.40
2024-02-14T21:17:35.775Z,10.40
2024-02-14T21:20:05.086Z,10.40
2024-02-14T21:22:35.103Z,10.30
2024-02-14T21:25:04.694Z,10.40
2024-02-14T21:27:33.444Z,10.40
2024-02-14T21:30:01.912Z,10.40
2024-02-14T21:32:32.879Z,10.40
2024-02-14T21:35:04.557Z,10.40
2024-02-14T21:37:32.905Z,10.40
2024-02-14T21:40:02.912Z,10.40
2024-02-14T21:42:31.316Z,10.40
2024-02-14T21:44:59.808Z,10.40
2024-02-14T21:47:28.906Z,10.40
2024-02-14T21:49:57.782Z,10.40
2024-02-14T21:52:31.067Z,10.50
2024-02-14T21:55:00.111Z,10.40
2024-02-14T21:57:30.783Z,10.40
2024-02-14T22:00:00.341Z,10.40
2024-02-14T22:02:31.251Z,10.40
2024-02-14T22:04:59.671Z,10.40
2024-02-14T22:07:29.392Z,10.40
2024-02-14T22:09:58.008Z,10.40
2024-02-14T22:12:26.424Z,10.40
2024-02-14T22:14:55.855Z,10.50
2024-02-14T22:17:24.378Z,10.50
2024-02-14T22:19:54.468Z,10.40
2024-02-14T22:22:23.904Z,10.40
2024-02-14T22:24:53.715Z,10.40
2024-02-14T22:27:23.869Z,10.40
2024-02-14T22:29:52.989Z,10.50
2024-02-14T22:32:21.524Z,10.50
2024-02-14T22:34:50.007Z,10.50
2024-02-14T22:37:18.612Z,10.50
2024-02-14T22:39:47.109Z,10.50
2024-02-14T22:42:17.020Z,10.50
2024-02-14T22:44:45.744Z,10.50
2024-02-14T22:47:14.148Z,10.50
2024-02-14T22:49:43.900Z,10.50
2024-02-14T22:52:12.470Z,10.50
2024-02-14T22:54:40.973Z,10.50
2024-02-14T22:57:11.949Z,10.40
2024-02-14T22:59:41.828Z,10.40
2024-02-14T23:02:10.720Z,10.40
2024-02-14T23:04:39.494Z,10.40
2024-02-14T23:07:10.145Z,10.40
2024-02-14T23:09:41.032Z,10.40
2024-02-14T23:12:10.014Z,10.40
2024-02-14T23:14:38.506Z,10.30
2024-02-14T23:17:08.354Z,10.30
2024-02-14T23:19:37.001Z,10.30
2024-02-14T23:22:05.802Z,10.30
2024-02-14T23:24:34.402Z,10.40
2024-02-14T23:27:02.901Z,10.30
2024-02-14T23:29:32.118Z,10.30
2024-02-14T23:32:05.662Z,10.30
2024-02-14T23:34:35.558Z,10.30
2024-02-14T23:37:04.045Z,10.30
2024-02-14T23:39:32.437Z,10.30
2024-02-14T23:42:04.405Z,10.30
2024-02-14T23:44:33.077Z,10.30
2024-02-14T23:47:01.448Z,10.30
2024-02-14T23:49:30.327Z,10.30
2024-02-14T23:52:00.307Z,10.30
2024-02-14T23:54:31.100Z,10.30
2024-02-14T23:56:59.571Z,10.40
2024-02-14T23:59:28.264Z,10.30
